sensor_id;sensor_type;location;lat;lon;timestamp;P1;durP1;ratioP1;P2;durP2;ratioP2
25567;SDS011;13455;51.480;7.594;2023-10-13T00:00:32;22.60;;;15.63;;
25567;SDS011;13455;51.480;7.594;2023-10-13T00:03:01;20.52;;;15.88;;
25567;SDS011;13455;51.480;7.594;2023-10-13T00:05:30;22.63;;;15.35;;
25567;SDS011;13455;51.480;7.594;2023-10-13T00:07:59;20.00;;;14.90;;
25567;SDS011;13455;51.480;7.594;2023-10-13T00:10:26;21.80;;;15.65;;
25567;SDS011;13455;51.480;7.594;2023-10-13T00:12:52;18.60;;;15.18;;
25567;SDS011;13455;51.480;7.594;2023-10-13T00:15:18;20.25;;;15.27;;
25567;SDS011;13455;51.480;7.594;2023-10-13T00:17:53;20.98;;;15.25;;
25567;SDS011;13455;51.480;7.594;2023-10-13T00:20:20;20.45;;;14.88;;
25567;SDS011;13455;51.480;7.594;2023-10-13T00:23:02;20.67;;;15.05;;
25567;SDS011;13455;51.480;7.594;2023-10-13T00:25:28;20.63;;;15.00;;
25567;SDS011;13455;51.480;7.594;2023-10-13T00:28:08;20.35;;;14.50;;
25567;SDS011;13455;51.480;7.594;2023-10-13T00:30:34;18.10;;;13.73;;
25567;SDS011;13455;51.480;7.594;2023-10-13T00:33:00;18.37;;;14.00;;
25567;SDS011;13455;51.480;7.594;2023-10-13T00:35:27;20.23;;;13.57;;
25567;SDS011;13455;51.480;7.594;2023-10-13T00:37:57;19.13;;;12.80;;
25567;SDS011;13455;51.480;7.594;2023-10-13T00:40:32;19.50;;;12.57;;
25567;SDS011;13455;51.480;7.594;2023-10-13T00:42:58;18.23;;;12.30;;
25567;SDS011;13455;51.480;7.594;2023-10-13T00:45:45;16.50;;;11.25;;
25567;SDS011;13455;51.480;7.594;2023-10-13T00:50:59;17.38;;;11.05;;
25567;SDS011;13455;51.480;7.594;2023-10-13T00:53:28;15.00;;;10.57;;
25567;SDS011;13455;51.480;7.594;2023-10-13T00:55:54;14.65;;;10.27;;
25567;SDS011;13455;51.480;7.594;2023-10-13T00:58:30;12.48;;;9.77;;
25567;SDS011;13455;51.480;7.594;2023-10-13T01:00:58;14.15;;;9.73;;
25567;SDS011;13455;51.480;7.594;2023-10-13T01:03:42;15.63;;;9.60;;
25567;SDS011;13455;51.480;7.594;2023-10-13T01:06:09;13.45;;;9.30;;
25567;SDS011;13455;51.480;7.594;2023-10-13T01:08:37;16.83;;;9.50;;
25567;SDS011;13455;51.480;7.594;2023-10-13T01:11:03;15.10;;;8.95;;
25567;SDS011;13455;51.480;7.594;2023-10-13T01:13:33;13.52;;;8.90;;
25567;SDS011;13455;51.480;7.594;2023-10-13T01:16:02;15.07;;;9.00;;
25567;SDS011;13455;51.480;7.594;2023-10-13T01:18:29;13.63;;;8.63;;
25567;SDS011;13455;51.480;7.594;2023-10-13T01:20:55;12.75;;;9.07;;
25567;SDS011;13455;51.480;7.594;2023-10-13T01:23:24;14.38;;;9.93;;
25567;SDS011;13455;51.480;7.594;2023-10-13T01:25:53;14.73;;;9.17;;
25567;SDS011;13455;51.480;7.594;2023-10-13T01:28:19;12.27;;;9.07;;
25567;SDS011;13455;51.480;7.594;2023-10-13T01:30:47;14.85;;;9.77;;
25567;SDS011;13455;51.480;7.594;2023-10-13T01:33:17;16.48;;;9.30;;
25567;SDS011;13455;51.480;7.594;2023-10-13T01:35:51;14.50;;;9.23;;
25567;SDS011;13455;51.480;7.594;2023-10-13T01:38:18;13.50;;;9.00;;
25567;SDS011;13455;51.480;7.594;2023-10-13T01:40:44;16.98;;;8.90;;
25567;SDS011;13455;51.480;7.594;2023-10-13T01:43:14;15.43;;;8.57;;
25567;SDS011;13455;51.480;7.594;2023-10-13T01:45:40;14.73;;;8.38;;
25567;SDS011;13455;51.480;7.594;2023-10-13T01:48:15;13.40;;;8.60;;
25567;SDS011;13455;51.480;7.594;2023-10-13T01:50:43;14.33;;;8.63;;
25567;SDS011;13455;51.480;7.594;2023-10-13T01:53:13;15.05;;;8.70;;
25567;SDS011;13455;51.480;7.594;2023-10-13T01:55:42;12.68;;;8.70;;
25567;SDS011;13455;51.480;7.594;2023-10-13T01:58:12;14.90;;;9.02;;
25567;SDS011;13455;51.480;7.594;2023-10-13T02:00:42;14.00;;;8.90;;
25567;SDS011;13455;51.480;7.594;2023-10-13T02:03:09;12.63;;;8.68;;
25567;SDS011;13455;51.480;7.594;2023-10-13T02:05:41;11.68;;;8.70;;
25567;SDS011;13455;51.480;7.594;2023-10-13T02:08:11;13.85;;;8.43;;
25567;SDS011;13455;51.480;7.594;2023-10-13T02:10:44;12.70;;;8.30;;
25567;SDS011;13455;51.480;7.594;2023-10-13T02:13:13;12.57;;;8.60;;
25567;SDS011;13455;51.480;7.594;2023-10-13T02:15:46;14.10;;;8.40;;
25567;SDS011;13455;51.480;7.594;2023-10-13T02:18:16;12.05;;;8.25;;
25567;SDS011;13455;51.480;7.594;2023-10-13T02:20:46;12.00;;;8.63;;
25567;SDS011;13455;51.480;7.594;2023-10-13T02:23:19;12.35;;;9.30;;
25567;SDS011;13455;51.480;7.594;2023-10-13T02:25:45;14.20;;;9.17;;
25567;SDS011;13455;51.480;7.594;2023-10-13T02:28:11;13.82;;;8.90;;
25567;SDS011;13455;51.480;7.594;2023-10-13T02:30:46;13.98;;;9.20;;
25567;SDS011;13455;51.480;7.594;2023-10-13T02:33:18;15.63;;;9.70;;
25567;SDS011;13455;51.480;7.594;2023-10-13T02:35:47;14.05;;;9.57;;
25567;SDS011;13455;51.480;7.594;2023-10-13T02:38:18;18.52;;;9.90;;
25567;SDS011;13455;51.480;7.594;2023-10-13T02:40:53;14.30;;;9.70;;
25567;SDS011;13455;51.480;7.594;2023-10-13T02:43:20;13.47;;;8.80;;
25567;SDS011;13455;51.480;7.594;2023-10-13T02:45:53;14.95;;;9.50;;
25567;SDS011;13455;51.480;7.594;2023-10-13T02:48:23;14.38;;;9.07;;
25567;SDS011;13455;51.480;7.594;2023-10-13T02:50:54;15.65;;;9.07;;
25567;SDS011;13455;51.480;7.594;2023-10-13T02:53:20;13.43;;;8.98;;
25567;SDS011;13455;51.480;7.594;2023-10-13T02:55:53;14.90;;;9.25;;
25567;SDS011;13455;51.480;7.594;2023-10-13T02:58:21;15.15;;;9.80;;
25567;SDS011;13455;51.480;7.594;2023-10-13T03:00:47;15.90;;;10.03;;
25567;SDS011;13455;51.480;7.594;2023-10-13T03:03:14;13.68;;;9.32;;
25567;SDS011;13455;51.480;7.594;2023-10-13T03:05:43;14.13;;;8.80;;
25567;SDS011;13455;51.480;7.594;2023-10-13T03:08:10;15.05;;;8.15;;
25567;SDS011;13455;51.480;7.594;2023-10-13T03:10:37;14.38;;;8.07;;
25567;SDS011;13455;51.480;7.594;2023-10-13T03:13:11;11.90;;;7.55;;
25567;SDS011;13455;51.480;7.594;2023-10-13T03:15:37;10.50;;;7.10;;
25567;SDS011;13455;51.480;7.594;2023-10-13T03:18:03;13.18;;;7.50;;
25567;SDS011;13455;51.480;7.594;2023-10-13T03:20:29;10.68;;;7.45;;
25567;SDS011;13455;51.480;7.594;2023-10-13T03:22:56;13.20;;;7.50;;
25567;SDS011;13455;51.480;7.594;2023-10-13T03:25:22;11.57;;;7.80;;
25567;SDS011;13455;51.480;7.594;2023-10-13T03:27:54;11.02;;;7.18;;
25567;SDS011;13455;51.480;7.594;2023-10-13T03:30:20;13.25;;;7.30;;
25567;SDS011;13455;51.480;7.594;2023-10-13T03:32:47;13.32;;;7.45;;
25567;SDS011;13455;51.480;7.594;2023-10-13T03:35:20;12.27;;;7.15;;
25567;SDS011;13455;51.480;7.594;2023-10-13T03:37:49;11.90;;;7.18;;
25567;SDS011;13455;51.480;7.594;2023-10-13T03:40:15;14.80;;;7.40;;
25567;SDS011;13455;51.480;7.594;2023-10-13T03:42:45;10.83;;;7.10;;
25567;SDS011;13455;51.480;7.594;2023-10-13T03:45:24;10.00;;;7.13;;
25567;SDS011;13455;51.480;7.594;2023-10-13T03:47:50;14.20;;;7.50;;
25567;SDS011;13455;51.480;7.594;2023-10-13T03:50:17;13.65;;;7.80;;
25567;SDS011;13455;51.480;7.594;2023-10-13T03:52:54;11.43;;;7.60;;
25567;SDS011;13455;51.480;7.594;2023-10-13T03:55:24;12.27;;;7.67;;
25567;SDS011;13455;51.480;7.594;2023-10-13T03:57:52;13.47;;;8.00;;
25567;SDS011;13455;51.480;7.594;2023-10-13T04:00:19;11.90;;;7.57;;
25567;SDS011;13455;51.480;7.594;2023-10-13T04:02:50;12.48;;;7.93;;
25567;SDS011;13455;51.480;7.594;2023-10-13T04:05:32;13.23;;;7.80;;
25567;SDS011;13455;51.480;7.594;2023-10-13T04:08:04;11.88;;;7.30;;
25567;SDS011;13455;51.480;7.594;2023-10-13T04:10:49;12.00;;;7.68;;
25567;SDS011;13455;51.480;7.594;2023-10-13T04:13:18;12.95;;;8.00;;
25567;SDS011;13455;51.480;7.594;2023-10-13T04:16:09;11.98;;;7.47;;
25567;SDS011;13455;51.480;7.594;2023-10-13T04:18:50;12.80;;;7.72;;
25567;SDS011;13455;51.480;7.594;2023-10-13T04:21:19;10.50;;;7.33;;
25567;SDS011;13455;51.480;7.594;2023-10-13T04:24:12;13.27;;;7.90;;
25567;SDS011;13455;51.480;7.594;2023-10-13T04:26:50;11.35;;;7.95;;
25567;SDS011;13455;51.480;7.594;2023-10-13T04:29:35;12.93;;;7.93;;
25567;SDS011;13455;51.480;7.594;2023-10-13T04:32:22;11.48;;;7.90;;
25567;SDS011;13455;51.480;7.594;2023-10-13T04:34:55;18.17;;;7.88;;
25567;SDS011;13455;51.480;7.594;2023-10-13T04:37:24;15.40;;;8.50;;
25567;SDS011;13455;51.480;7.594;2023-10-13T04:40:10;12.48;;;7.95;;
25567;SDS011;13455;51.480;7.594;2023-10-13T04:42:36;14.20;;;7.82;;
25567;SDS011;13455;51.480;7.594;2023-10-13T04:45:18;12.88;;;8.10;;
25567;SDS011;13455;51.480;7.594;2023-10-13T04:47:56;12.43;;;7.93;;
25567;SDS011;13455;51.480;7.594;2023-10-13T04:50:38;11.63;;;7.80;;
25567;SDS011;13455;51.480;7.594;2023-10-13T04:53:10;17.23;;;8.47;;
25567;SDS011;13455;51.480;7.594;2023-10-13T04:55:53;12.82;;;7.95;;
25567;SDS011;13455;51.480;7.594;2023-10-13T04:58:31;13.10;;;8.23;;
25567;SDS011;13455;51.480;7.594;2023-10-13T05:01:03;14.10;;;8.23;;
25567;SDS011;13455;51.480;7.594;2023-10-13T05:03:48;13.63;;;7.90;;
25567;SDS011;13455;51.480;7.594;2023-10-13T05:06:32;13.05;;;7.90;;
25567;SDS011;13455;51.480;7.594;2023-10-13T05:09:13;12.20;;;8.10;;
25567;SDS011;13455;51.480;7.594;2023-10-13T05:11:58;11.80;;;7.82;;
25567;SDS011;13455;51.480;7.594;2023-10-13T05:14:43;13.90;;;8.18;;
25567;SDS011;13455;51.480;7.594;2023-10-13T05:17:28;13.52;;;8.25;;
25567;SDS011;13455;51.480;7.594;2023-10-13T05:20:13;17.77;;;8.38;;
25567;SDS011;13455;51.480;7.594;2023-10-13T05:22:58;15.05;;;8.52;;
25567;SDS011;13455;51.480;7.594;2023-10-13T05:25:43;14.40;;;8.45;;
25567;SDS011;13455;51.480;7.594;2023-10-13T05:28:27;13.27;;;8.25;;
25567;SDS011;13455;51.480;7.594;2023-10-13T05:31:12;14.50;;;8.82;;
25567;SDS011;13455;51.480;7.594;2023-10-13T05:33:57;14.23;;;8.45;;
25567;SDS011;13455;51.480;7.594;2023-10-13T05:36:41;12.30;;;8.48;;
25567;SDS011;13455;51.480;7.594;2023-10-13T05:39:26;15.48;;;8.02;;
25567;SDS011;13455;51.480;7.594;2023-10-13T05:42:10;14.23;;;8.00;;
25567;SDS011;13455;51.480;7.594;2023-10-13T05:44:55;13.30;;;8.23;;
25567;SDS011;13455;51.480;7.594;2023-10-13T05:47:41;13.98;;;7.95;;
25567;SDS011;13455;51.480;7.594;2023-10-13T05:50:08;14.73;;;8.20;;
25567;SDS011;13455;51.480;7.594;2023-10-13T05:52:46;13.77;;;7.85;;
25567;SDS011;13455;51.480;7.594;2023-10-13T05:55:29;14.47;;;7.70;;
25567;SDS011;13455;51.480;7.594;2023-10-13T05:58:14;12.55;;;7.70;;
25567;SDS011;13455;51.480;7.594;2023-10-13T06:00:59;14.30;;;7.63;;
25567;SDS011;13455;51.480;7.594;2023-10-13T06:03:44;11.52;;;7.03;;
25567;SDS011;13455;51.480;7.594;2023-10-13T06:06:28;13.07;;;7.55;;
25567;SDS011;13455;51.480;7.594;2023-10-13T06:09:14;11.90;;;7.33;;
25567;SDS011;13455;51.480;7.594;2023-10-13T06:11:58;12.18;;;7.95;;
25567;SDS011;13455;51.480;7.594;2023-10-13T06:14:46;12.07;;;7.57;;
25567;SDS011;13455;51.480;7.594;2023-10-13T06:17:31;13.55;;;7.47;;
25567;SDS011;13455;51.480;7.594;2023-10-13T06:20:16;13.23;;;7.40;;
25567;SDS011;13455;51.480;7.594;2023-10-13T06:23:00;12.85;;;7.75;;
25567;SDS011;13455;51.480;7.594;2023-10-13T06:25:52;15.27;;;7.97;;
25567;SDS011;13455;51.480;7.594;2023-10-13T06:28:36;12.73;;;7.65;;
25567;SDS011;13455;51.480;7.594;2023-10-13T06:31:06;15.25;;;7.75;;
25567;SDS011;13455;51.480;7.594;2023-10-13T06:33:32;17.10;;;8.20;;
25567;SDS011;13455;51.480;7.594;2023-10-13T06:36:09;17.70;;;7.78;;
25567;SDS011;13455;51.480;7.594;2023-10-13T06:38:35;12.20;;;6.57;;
25567;SDS011;13455;51.480;7.594;2023-10-13T06:41:02;12.93;;;6.28;;
25567;SDS011;13455;51.480;7.594;2023-10-13T06:43:31;12.85;;;6.25;;
25567;SDS011;13455;51.480;7.594;2023-10-13T06:45:57;14.07;;;6.80;;
25567;SDS011;13455;51.480;7.594;2023-10-13T06:48:27;14.38;;;6.70;;
25567;SDS011;13455;51.480;7.594;2023-10-13T06:50:59;11.93;;;6.20;;
25567;SDS011;13455;51.480;7.594;2023-10-13T06:53:29;10.05;;;5.65;;
25567;SDS011;13455;51.480;7.594;2023-10-13T06:56:01;11.45;;;5.00;;
25567;SDS011;13455;51.480;7.594;2023-10-13T06:58:28;11.27;;;4.97;;
25567;SDS011;13455;51.480;7.594;2023-10-13T07:00:54;9.38;;;4.97;;
25567;SDS011;13455;51.480;7.594;2023-10-13T07:03:21;7.78;;;4.25;;
25567;SDS011;13455;51.480;7.594;2023-10-13T07:05:47;8.65;;;4.47;;
25567;SDS011;13455;51.480;7.594;2023-10-13T07:08:14;7.78;;;4.32;;
25567;SDS011;13455;51.480;7.594;2023-10-13T07:10:49;7.75;;;4.20;;
25567;SDS011;13455;51.480;7.594;2023-10-13T07:13:33;7.78;;;4.22;;
25567;SDS011;13455;51.480;7.594;2023-10-13T07:16:03;8.20;;;4.43;;
25567;SDS011;13455;51.480;7.594;2023-10-13T07:18:38;7.50;;;4.22;;
25567;SDS011;13455;51.480;7.594;2023-10-13T07:21:15;9.15;;;4.75;;
25567;SDS011;13455;51.480;7.594;2023-10-13T07:23:41;7.60;;;4.90;;
25567;SDS011;13455;51.480;7.594;2023-10-13T07:26:14;8.05;;;4.40;;
25567;SDS011;13455;51.480;7.594;2023-10-13T07:28:40;8.95;;;4.90;;
25567;SDS011;13455;51.480;7.594;2023-10-13T07:31:13;8.02;;;5.10;;
25567;SDS011;13455;51.480;7.594;2023-10-13T07:33:44;11.32;;;4.93;;
25567;SDS011;13455;51.480;7.594;2023-10-13T07:36:10;9.77;;;5.00;;
25567;SDS011;13455;51.480;7.594;2023-10-13T07:38:37;11.43;;;5.47;;
25567;SDS011;13455;51.480;7.594;2023-10-13T07:41:03;9.45;;;5.40;;
25567;SDS011;13455;51.480;7.594;2023-10-13T07:43:32;11.18;;;5.82;;
25567;SDS011;13455;51.480;7.594;2023-10-13T07:45:58;11.50;;;5.50;;
25567;SDS011;13455;51.480;7.594;2023-10-13T07:48:31;12.32;;;5.90;;
25567;SDS011;13455;51.480;7.594;2023-10-13T07:51:05;12.52;;;6.00;;
25567;SDS011;13455;51.480;7.594;2023-10-13T07:53:51;15.95;;;6.13;;
25567;SDS011;13455;51.480;7.594;2023-10-13T07:56:18;13.75;;;6.15;;
25567;SDS011;13455;51.480;7.594;2023-10-13T07:58:44;12.57;;;5.60;;
25567;SDS011;13455;51.480;7.594;2023-10-13T08:01:26;12.15;;;5.57;;
25567;SDS011;13455;51.480;7.594;2023-10-13T08:03:52;12.57;;;5.68;;
25567;SDS011;13455;51.480;7.594;2023-10-13T08:06:36;14.32;;;5.90;;
25567;SDS011;13455;51.480;7.594;2023-10-13T08:09:03;15.15;;;5.70;;
25567;SDS011;13455;51.480;7.594;2023-10-13T08:11:33;12.88;;;5.47;;
25567;SDS011;13455;51.480;7.594;2023-10-13T08:14:05;16.13;;;5.43;;
25567;SDS011;13455;51.480;7.594;2023-10-13T08:16:48;16.43;;;5.83;;
25567;SDS011;13455;51.480;7.594;2023-10-13T08:19:24;18.40;;;5.95;;
25567;SDS011;13455;51.480;7.594;2023-10-13T08:21:53;15.80;;;5.53;;
25567;SDS011;13455;51.480;7.594;2023-10-13T08:24:23;15.85;;;5.60;;
25567;SDS011;13455;51.480;7.594;2023-10-13T08:27:02;16.83;;;5.50;;
25567;SDS011;13455;51.480;7.594;2023-10-13T08:29:44;17.90;;;5.30;;
25567;SDS011;13455;51.480;7.594;2023-10-13T08:32:26;16.75;;;5.65;;
25567;SDS011;13455;51.480;7.594;2023-10-13T08:34:52;17.00;;;5.32;;
25567;SDS011;13455;51.480;7.594;2023-10-13T08:37:19;17.40;;;6.20;;
25567;SDS011;13455;51.480;7.594;2023-10-13T08:42:43;16.27;;;5.63;;
25567;SDS011;13455;51.480;7.594;2023-10-13T08:47:48;19.03;;;5.97;;
25567;SDS011;13455;51.480;7.594;2023-10-13T08:50:32;15.93;;;5.50;;
25567;SDS011;13455;51.480;7.594;2023-10-13T08:58:27;14.43;;;5.20;;
25567;SDS011;13455;51.480;7.594;2023-10-13T09:01:13;16.25;;;5.55;;
25567;SDS011;13455;51.480;7.594;2023-10-13T09:03:59;15.60;;;5.18;;
25567;SDS011;13455;51.480;7.594;2023-10-13T09:06:46;13.98;;;5.40;;
25567;SDS011;13455;51.480;7.594;2023-10-13T09:09:23;16.35;;;5.63;;
25567;SDS011;13455;51.480;7.594;2023-10-13T09:11:53;16.38;;;5.00;;
25567;SDS011;13455;51.480;7.594;2023-10-13T09:14:32;16.97;;;5.20;;
25567;SDS011;13455;51.480;7.594;2023-10-13T09:17:04;14.15;;;5.07;;
25567;SDS011;13455;51.480;7.594;2023-10-13T09:19:43;13.50;;;4.95;;
25567;SDS011;13455;51.480;7.594;2023-10-13T09:22:21;16.67;;;5.05;;
25567;SDS011;13455;51.480;7.594;2023-10-13T09:24:59;13.57;;;5.35;;
25567;SDS011;13455;51.480;7.594;2023-10-13T09:27:29;14.25;;;5.20;;
25567;SDS011;13455;51.480;7.594;2023-10-13T09:30:01;14.47;;;4.87;;
25567;SDS011;13455;51.480;7.594;2023-10-13T09:33:01;12.02;;;4.70;;
25567;SDS011;13455;51.480;7.594;2023-10-13T09:35:30;14.25;;;4.85;;
25567;SDS011;13455;51.480;7.594;2023-10-13T09:38:02;17.70;;;4.75;;
25567;SDS011;13455;51.480;7.594;2023-10-13T09:40:28;16.27;;;4.90;;
25567;SDS011;13455;51.480;7.594;2023-10-13T09:42:58;15.13;;;4.65;;
25567;SDS011;13455;51.480;7.594;2023-10-13T09:45:33;14.15;;;4.88;;
25567;SDS011;13455;51.480;7.594;2023-10-13T09:48:11;15.73;;;5.22;;
25567;SDS011;13455;51.480;7.594;2023-10-13T09:50:47;15.43;;;5.28;;
25567;SDS011;13455;51.480;7.594;2023-10-13T09:53:14;16.55;;;4.75;;
25567;SDS011;13455;51.480;7.594;2023-10-13T09:55:47;15.32;;;4.88;;
25567;SDS011;13455;51.480;7.594;2023-10-13T09:58:16;13.50;;;5.00;;
25567;SDS011;13455;51.480;7.594;2023-10-13T10:00:44;18.10;;;4.93;;
25567;SDS011;13455;51.480;7.594;2023-10-13T10:03:15;17.08;;;4.93;;
25567;SDS011;13455;51.480;7.594;2023-10-13T10:05:59;14.63;;;5.10;;
25567;SDS011;13455;51.480;7.594;2023-10-13T10:08:39;17.30;;;4.60;;
25567;SDS011;13455;51.480;7.594;2023-10-13T10:11:26;15.82;;;5.70;;
25567;SDS011;13455;51.480;7.594;2023-10-13T10:14:12;15.67;;;5.20;;
25567;SDS011;13455;51.480;7.594;2023-10-13T10:16:49;13.82;;;5.07;;
25567;SDS011;13455;51.480;7.594;2023-10-13T10:19:47;14.50;;;5.40;;
25567;SDS011;13455;51.480;7.594;2023-10-13T10:25:07;14.25;;;5.60;;
25567;SDS011;13455;51.480;7.594;2023-10-13T10:27:57;15.30;;;5.10;;
25567;SDS011;13455;51.480;7.594;2023-10-13T10:30:24;18.48;;;5.40;;
25567;SDS011;13455;51.480;7.594;2023-10-13T10:32:56;14.82;;;5.20;;
25567;SDS011;13455;51.480;7.594;2023-10-13T10:35:26;15.33;;;5.23;;
25567;SDS011;13455;51.480;7.594;2023-10-13T10:37:58;14.70;;;5.10;;
25567;SDS011;13455;51.480;7.594;2023-10-13T10:41:03;16.63;;;5.40;;
25567;SDS011;13455;51.480;7.594;2023-10-13T10:46:12;11.38;;;5.10;;
25567;SDS011;13455;51.480;7.594;2023-10-13T10:48:37;11.95;;;5.00;;
25567;SDS011;13455;51.480;7.594;2023-10-13T10:51:08;17.35;;;5.68;;
25567;SDS011;13455;51.480;7.594;2023-10-13T10:53:39;15.25;;;5.10;;
25567;SDS011;13455;51.480;7.594;2023-10-13T10:56:12;14.35;;;5.40;;
25567;SDS011;13455;51.480;7.594;2023-10-13T10:58:48;13.75;;;5.15;;
25567;SDS011;13455;51.480;7.594;2023-10-13T11:01:20;17.60;;;5.75;;
25567;SDS011;13455;51.480;7.594;2023-10-13T11:04:04;14.43;;;5.35;;
25567;SDS011;13455;51.480;7.594;2023-10-13T11:06:44;15.40;;;5.60;;
25567;SDS011;13455;51.480;7.594;2023-10-13T11:09:11;14.55;;;5.63;;
25567;SDS011;13455;51.480;7.594;2023-10-13T11:11:52;18.65;;;5.78;;
25567;SDS011;13455;51.480;7.594;2023-10-13T11:14:28;15.63;;;5.78;;
25567;SDS011;13455;51.480;7.594;2023-10-13T11:16:56;13.98;;;5.30;;
25567;SDS011;13455;51.480;7.594;2023-10-13T11:19:34;12.05;;;5.70;;
25567;SDS011;13455;51.480;7.594;2023-10-13T11:22:11;16.02;;;5.75;;
25567;SDS011;13455;51.480;7.594;2023-10-13T11:25:00;13.77;;;5.40;;
25567;SDS011;13455;51.480;7.594;2023-10-13T11:27:34;15.47;;;5.27;;
25567;SDS011;13455;51.480;7.594;2023-10-13T11:30:20;16.25;;;5.57;;
25567;SDS011;13455;51.480;7.594;2023-10-13T11:33:07;16.67;;;5.70;;
25567;SDS011;13455;51.480;7.594;2023-10-13T11:35:34;15.05;;;5.68;;
25567;SDS011;13455;51.480;7.594;2023-10-13T11:38:31;16.80;;;5.83;;
25567;SDS011;13455;51.480;7.594;2023-10-13T11:41:10;16.23;;;5.47;;
25567;SDS011;13455;51.480;7.594;2023-10-13T11:46:09;15.25;;;5.50;;
25567;SDS011;13455;51.480;7.594;2023-10-13T11:48:39;18.63;;;5.70;;
25567;SDS011;13455;51.480;7.594;2023-10-13T11:51:07;17.17;;;5.32;;
25567;SDS011;13455;51.480;7.594;2023-10-13T11:53:36;15.38;;;5.30;;
25567;SDS011;13455;51.480;7.594;2023-10-13T11:56:02;13.80;;;5.20;;
25567;SDS011;13455;51.480;7.594;2023-10-13T11:58:36;16.70;;;5.50;;
25567;SDS011;13455;51.480;7.594;2023-10-13T12:01:02;18.13;;;5.50;;
25567;SDS011;13455;51.480;7.594;2023-10-13T12:03:43;15.43;;;5.50;;
25567;SDS011;13455;51.480;7.594;2023-10-13T12:06:28;14.63;;;5.47;;
25567;SDS011;13455;51.480;7.594;2023-10-13T12:09:20;16.92;;;5.47;;
25567;SDS011;13455;51.480;7.594;2023-10-13T12:11:47;17.35;;;5.55;;
25567;SDS011;13455;51.480;7.594;2023-10-13T12:14:15;13.82;;;4.97;;
25567;SDS011;13455;51.480;7.594;2023-10-13T12:16:46;14.27;;;5.20;;
25567;SDS011;13455;51.480;7.594;2023-10-13T12:19:19;15.68;;;5.57;;
25567;SDS011;13455;51.480;7.594;2023-10-13T12:21:49;15.70;;;5.85;;
25567;SDS011;13455;51.480;7.594;2023-10-13T12:24:15;15.13;;;5.55;;
25567;SDS011;13455;51.480;7.594;2023-10-13T12:27:16;14.57;;;5.20;;
25567;SDS011;13455;51.480;7.594;2023-10-13T12:29:47;14.45;;;5.35;;
25567;SDS011;13455;51.480;7.594;2023-10-13T12:32:14;17.07;;;5.40;;
25567;SDS011;13455;51.480;7.594;2023-10-13T12:34:45;15.18;;;5.60;;
25567;SDS011;13455;51.480;7.594;2023-10-13T12:37:24;16.13;;;5.70;;
25567;SDS011;13455;51.480;7.594;2023-10-13T12:42:47;13.10;;;5.00;;
25567;SDS011;13455;51.480;7.594;2023-10-13T12:45:32;14.30;;;5.50;;
25567;SDS011;13455;51.480;7.594;2023-10-13T12:48:20;12.95;;;5.13;;
25567;SDS011;13455;51.480;7.594;2023-10-13T12:51:04;12.48;;;4.93;;
25567;SDS011;13455;51.480;7.594;2023-10-13T12:53:51;15.03;;;5.10;;
25567;SDS011;13455;51.480;7.594;2023-10-13T12:56:18;12.40;;;5.18;;
25567;SDS011;13455;51.480;7.594;2023-10-13T12:58:50;16.15;;;5.38;;
25567;SDS011;13455;51.480;7.594;2023-10-13T13:01:26;13.75;;;5.03;;
25567;SDS011;13455;51.480;7.594;2023-10-13T13:03:58;15.03;;;5.40;;
25567;SDS011;13455;51.480;7.594;2023-10-13T13:06:25;14.13;;;5.00;;
25567;SDS011;13455;51.480;7.594;2023-10-13T13:11:20;15.98;;;5.30;;
25567;SDS011;13455;51.480;7.594;2023-10-13T13:13:47;16.60;;;5.57;;
25567;SDS011;13455;51.480;7.594;2023-10-13T13:16:13;16.05;;;5.38;;
25567;SDS011;13455;51.480;7.594;2023-10-13T13:18:40;14.43;;;5.30;;
25567;SDS011;13455;51.480;7.594;2023-10-13T13:21:08;13.75;;;5.57;;
25567;SDS011;13455;51.480;7.594;2023-10-13T13:23:37;13.93;;;5.47;;
25567;SDS011;13455;51.480;7.594;2023-10-13T13:26:05;13.82;;;5.47;;
25567;SDS011;13455;51.480;7.594;2023-10-13T13:28:40;15.25;;;5.32;;
25567;SDS011;13455;51.480;7.594;2023-10-13T13:31:07;14.95;;;5.35;;
25567;SDS011;13455;51.480;7.594;2023-10-13T13:33:33;19.60;;;5.90;;
25567;SDS011;13455;51.480;7.594;2023-10-13T13:36:04;15.13;;;5.50;;
25567;SDS011;13455;51.480;7.594;2023-10-13T13:38:30;18.00;;;5.63;;
25567;SDS011;13455;51.480;7.594;2023-10-13T13:40:59;14.33;;;5.67;;
25567;SDS011;13455;51.480;7.594;2023-10-13T13:43:34;16.60;;;5.50;;
25567;SDS011;13455;51.480;7.594;2023-10-13T13:46:03;18.38;;;5.75;;
25567;SDS011;13455;51.480;7.594;2023-10-13T13:48:34;18.37;;;6.13;;
25567;SDS011;13455;51.480;7.594;2023-10-13T13:51:06;17.53;;;6.30;;
25567;SDS011;13455;51.480;7.594;2023-10-13T13:53:40;15.70;;;5.88;;
25567;SDS011;13455;51.480;7.594;2023-10-13T13:56:13;18.77;;;5.72;;
25567;SDS011;13455;51.480;7.594;2023-10-13T13:58:44;13.15;;;5.50;;
25567;SDS011;13455;51.480;7.594;2023-10-13T14:01:10;15.68;;;5.32;;
25567;SDS011;13455;51.480;7.594;2023-10-13T14:03:54;15.65;;;5.88;;
25567;SDS011;13455;51.480;7.594;2023-10-13T14:06:27;23.13;;;8.18;;
25567;SDS011;13455;51.480;7.594;2023-10-13T14:08:57;19.38;;;7.47;;
25567;SDS011;13455;51.480;7.594;2023-10-13T14:11:39;17.45;;;6.28;;
25567;SDS011;13455;51.480;7.594;2023-10-13T14:16:40;22.95;;;6.50;;
25567;SDS011;13455;51.480;7.594;2023-10-13T14:19:13;19.70;;;6.15;;
25567;SDS011;13455;51.480;7.594;2023-10-13T14:21:44;18.33;;;6.13;;
25567;SDS011;13455;51.480;7.594;2023-10-13T14:24:10;17.60;;;5.60;;
25567;SDS011;13455;51.480;7.594;2023-10-13T14:26:39;15.30;;;5.35;;
25567;SDS011;13455;51.480;7.594;2023-10-13T14:29:08;19.73;;;5.47;;
25567;SDS011;13455;51.480;7.594;2023-10-13T14:31:35;16.83;;;5.37;;
25567;SDS011;13455;51.480;7.594;2023-10-13T14:34:04;16.63;;;5.53;;
25567;SDS011;13455;51.480;7.594;2023-10-13T14:36:31;16.85;;;5.50;;
25567;SDS011;13455;51.480;7.594;2023-10-13T14:38:59;15.93;;;5.38;;
25567;SDS011;13455;51.480;7.594;2023-10-13T14:41:26;19.55;;;5.70;;
25567;SDS011;13455;51.480;7.594;2023-10-13T14:43:51;19.02;;;5.53;;
25567;SDS011;13455;51.480;7.594;2023-10-13T14:46:17;17.70;;;5.10;;
25567;SDS011;13455;51.480;7.594;2023-10-13T14:48:48;17.27;;;5.40;;
25567;SDS011;13455;51.480;7.594;2023-10-13T14:51:14;21.02;;;5.47;;
25567;SDS011;13455;51.480;7.594;2023-10-13T14:53:46;17.33;;;4.95;;
25567;SDS011;13455;51.480;7.594;2023-10-13T14:56:13;23.42;;;5.60;;
25567;SDS011;13455;51.480;7.594;2023-10-13T14:58:40;16.83;;;5.30;;
25567;SDS011;13455;51.480;7.594;2023-10-13T15:01:12;17.73;;;5.10;;
25567;SDS011;13455;51.480;7.594;2023-10-13T15:03:41;18.00;;;5.17;;
25567;SDS011;13455;51.480;7.594;2023-10-13T15:06:20;19.63;;;5.37;;
25567;SDS011;13455;51.480;7.594;2023-10-13T15:08:49;17.40;;;5.30;;
25567;SDS011;13455;51.480;7.594;2023-10-13T15:11:16;22.02;;;5.30;;
25567;SDS011;13455;51.480;7.594;2023-10-13T15:13:45;20.15;;;5.35;;
25567;SDS011;13455;51.480;7.594;2023-10-13T15:18:42;22.02;;;5.38;;
25567;SDS011;13455;51.480;7.594;2023-10-13T15:21:09;19.92;;;5.28;;
25567;SDS011;13455;51.480;7.594;2023-10-13T15:23:35;17.23;;;5.03;;
25567;SDS011;13455;51.480;7.594;2023-10-13T15:26:10;16.13;;;5.10;;
25567;SDS011;13455;51.480;7.594;2023-10-13T15:28:38;15.57;;;5.00;;
25567;SDS011;13455;51.480;7.594;2023-10-13T15:31:13;16.80;;;4.73;;
25567;SDS011;13455;51.480;7.594;2023-10-13T15:34:02;17.27;;;5.23;;
25567;SDS011;13455;51.480;7.594;2023-10-13T15:36:32;17.38;;;5.07;;
25567;SDS011;13455;51.480;7.594;2023-10-13T15:38:59;18.52;;;5.32;;
25567;SDS011;13455;51.480;7.594;2023-10-13T15:41:25;15.10;;;4.75;;